sensor_id;sensor_type;location;lat;lon;timestamp;pressure;altitude;pressure_sealevel;temperature;humidity
79138;BME280;68544;45.566;10.238;2023-04-06T00:00:45;100126.41;;;7.52;41.24
79138;BME280;68544;45.566;10.238;2023-04-06T00:03:10;100135.81;;;7.64;40.96
79138;BME280;68544;45.566;10.238;2023-04-06T00:05:35;100129.75;;;7.62;41.25
79138;BME280;68544;45.566;10.238;2023-04-06T00:08:01;100130.78;;;7.53;40.95
79138;BME280;68544;45.566;10.238;2023-04-06T00:10:26;100126.19;;;7.37;40.83
79138;BME280;68544;45.566;10.238;2023-04-06T00:12:52;100131.00;;;7.26;41.07
79138;BME280;68544;45.566;10.238;2023-04-06T00:15:17;100143.84;;;7.40;41.25
79138;BME280;68544;45.566;10.238;2023-04-06T00:17:43;100137.41;;;7.25;42.02
79138;BME280;68544;45.566;10.238;2023-04-06T00:20:08;100132.91;;;7.33;42.52
79138;BME280;68544;45.566;10.238;2023-04-06T00:22:34;100132.59;;;7.44;42.61
79138;BME280;68544;45.566;10.238;2023-04-06T00:24:59;100124.84;;;7.33;42.60
79138;BME280;68544;45.566;10.238;2023-04-06T00:27:25;100117.81;;;7.40;42.22
79138;BME280;68544;45.566;10.238;2023-04-06T00:29:50;100127.13;;;7.12;42.11
79138;BME280;68544;45.566;10.238;2023-04-06T00:32:15;100125.97;;;7.14;41.35
79138;BME280;68544;45.566;10.238;2023-04-06T00:34:41;100126.28;;;7.11;41.00
79138;BME280;68544;45.566;10.238;2023-04-06T00:37:06;100096.53;;;7.05;40.77
79138;BME280;68544;45.566;10.238;2023-04-06T00:39:31;100119.44;;;7.25;40.26
79138;BME280;68544;45.566;10.238;2023-04-06T00:41:57;100122.94;;;7.17;40.62
79138;BME280;68544;45.566;10.238;2023-04-06T00:44:22;100127.63;;;7.15;40.07
79138;BME280;68544;45.566;10.238;2023-04-06T00:46:48;100120.47;;;7.32;39.71
79138;BME280;68544;45.566;10.238;2023-04-06T00:49:13;100127.53;;;7.33;39.61
79138;BME280;68544;45.566;10.238;2023-04-06T00:51:38;100136.25;;;7.35;40.31
79138;BME280;68544;45.566;10.238;2023-04-06T00:54:04;100124.66;;;7.27;41.61
79138;BME280;68544;45.566;10.238;2023-04-06T00:56:30;100124.47;;;7.20;42.37
79138;BME280;68544;45.566;10.238;2023-04-06T00:58:56;100126.09;;;7.13;42.58
79138;BME280;68544;45.566;10.238;2023-04-06T01:01:23;100130.75;;;7.03;42.77
79138;BME280;68544;45.566;10.238;2023-04-06T01:03:49;100127.69;;;6.90;43.41
79138;BME280;68544;45.566;10.238;2023-04-06T01:06:15;100116.44;;;6.86;43.62
79138;BME280;68544;45.566;10.238;2023-04-06T01:08:40;100121.06;;;7.10;42.78
79138;BME280;68544;45.566;10.238;2023-04-06T01:11:05;100108.97;;;7.06;42.36
79138;BME280;68544;45.566;10.238;2023-04-06T01:13:31;100121.72;;;7.04;42.61
79138;BME280;68544;45.566;10.238;2023-04-06T01:15:56;100118.66;;;6.91;42.97
79138;BME280;68544;45.566;10.238;2023-04-06T01:18:29;100117.38;;;6.77;43.33
79138;BME280;68544;45.566;10.238;2023-04-06T01:20:55;100109.50;;;6.76;43.69
79138;BME280;68544;45.566;10.238;2023-04-06T01:23:20;100114.22;;;6.82;43.41
79138;BME280;68544;45.566;10.238;2023-04-06T01:25:45;100119.81;;;6.88;42.94
79138;BME280;68544;45.566;10.238;2023-04-06T01:28:11;100105.09;;;6.67;43.60
79138;BME280;68544;45.566;10.238;2023-04-06T01:30:36;100100.38;;;6.61;43.60
79138;BME280;68544;45.566;10.238;2023-04-06T01:33:02;100110.75;;;6.56;43.95
79138;BME280;68544;45.566;10.238;2023-04-06T01:35:27;100102.16;;;6.86;43.29
79138;BME280;68544;45.566;10.238;2023-04-06T01:37:53;100112.44;;;6.90;42.80
79138;BME280;68544;45.566;10.238;2023-04-06T01:40:18;100110.53;;;6.75;43.09
79138;BME280;68544;45.566;10.238;2023-04-06T01:42:44;100104.97;;;6.68;43.34
79138;BME280;68544;45.566;10.238;2023-04-06T01:45:09;100100.09;;;6.72;42.81
79138;BME280;68544;45.566;10.238;2023-04-06T01:47:35;100102.38;;;6.59;43.72
79138;BME280;68544;45.566;10.238;2023-04-06T01:50:00;100104.75;;;6.62;43.89
79138;BME280;68544;45.566;10.238;2023-04-06T01:52:27;100108.41;;;6.61;44.29
79138;BME280;68544;45.566;10.238;2023-04-06T01:54:53;100113.22;;;6.49;43.96
79138;BME280;68544;45.566;10.238;2023-04-06T01:57:18;100108.34;;;6.45;44.00
79138;BME280;68544;45.566;10.238;2023-04-06T01:59:43;100111.31;;;6.67;43.12
79138;BME280;68544;45.566;10.238;2023-04-06T02:02:08;100115.53;;;6.70;43.27
79138;BME280;68544;45.566;10.238;2023-04-06T02:04:34;100122.25;;;6.48;44.47
79138;BME280;68544;45.566;10.238;2023-04-06T02:07:00;100088.72;;;6.44;43.72
79138;BME280;68544;45.566;10.238;2023-04-06T02:09:25;100119.66;;;6.56;44.13
79138;BME280;68544;45.566;10.238;2023-04-06T02:11:50;100122.59;;;6.45;44.42
79138;BME280;68544;45.566;10.238;2023-04-06T02:14:15;100126.16;;;6.54;43.80
79138;BME280;68544;45.566;10.238;2023-04-06T02:16:41;100116.44;;;6.53;43.83
79138;BME280;68544;45.566;10.238;2023-04-06T02:19:06;100122.59;;;6.71;42.55
79138;BME280;68544;45.566;10.238;2023-04-06T02:21:32;100121.63;;;6.54;42.46
79138;BME280;68544;45.566;10.238;2023-04-06T02:23:57;100115.91;;;6.75;42.09
79138;BME280;68544;45.566;10.238;2023-04-06T02:26:22;100120.25;;;6.76;41.80
79138;BME280;68544;45.566;10.238;2023-04-06T02:28:48;100124.91;;;6.66;42.10
79138;BME280;68544;45.566;10.238;2023-04-06T02:31:14;100132.38;;;6.88;41.88
79138;BME280;68544;45.566;10.238;2023-04-06T02:33:40;100118.94;;;6.88;42.56
79138;BME280;68544;45.566;10.238;2023-04-06T02:36:06;100131.44;;;7.05;42.66
79138;BME280;68544;45.566;10.238;2023-04-06T02:38:31;100126.41;;;7.02;42.84
79138;BME280;68544;45.566;10.238;2023-04-06T02:40:56;100124.13;;;7.15;42.48
79138;BME280;68544;45.566;10.238;2023-04-06T02:43:22;100125.09;;;7.06;42.40
79138;BME280;68544;45.566;10.238;2023-04-06T02:45:47;100124.69;;;6.93;43.41
79138;BME280;68544;45.566;10.238;2023-04-06T02:48:13;100119.00;;;6.62;43.35
79138;BME280;68544;45.566;10.238;2023-04-06T02:50:38;100108.56;;;6.51;43.34
79138;BME280;68544;45.566;10.238;2023-04-06T02:53:04;100110.19;;;6.78;42.19
79138;BME280;68544;45.566;10.238;2023-04-06T02:55:29;100106.50;;;6.71;42.81
79138;BME280;68544;45.566;10.238;2023-04-06T02:57:55;100109.84;;;6.73;42.05
79138;BME280;68544;45.566;10.238;2023-04-06T03:00:20;100105.44;;;6.64;42.23
79138;BME280;68544;45.566;10.238;2023-04-06T03:02:46;100103.19;;;6.85;41.59
79138;BME280;68544;45.566;10.238;2023-04-06T03:05:11;100096.34;;;6.98;41.04
79138;BME280;68544;45.566;10.238;2023-04-06T03:07:36;100094.50;;;6.91;41.19
79138;BME280;68544;45.566;10.238;2023-04-06T03:10:02;100089.41;;;6.80;41.72
79138;BME280;68544;45.566;10.238;2023-04-06T03:12:27;100092.44;;;6.77;41.56
79138;BME280;68544;45.566;10.238;2023-04-06T03:14:52;100087.78;;;6.95;40.92
79138;BME280;68544;45.566;10.238;2023-04-06T03:17:18;100086.25;;;6.51;42.62
79138;BME280;68544;45.566;10.238;2023-04-06T03:19:43;100088.84;;;6.34;43.98
79138;BME280;68544;45.566;10.238;2023-04-06T03:22:08;100093.13;;;6.27;44.73
79138;BME280;68544;45.566;10.238;2023-04-06T03:24:33;100098.00;;;6.24;44.82
79138;BME280;68544;45.566;10.238;2023-04-06T03:26:59;100095.81;;;6.27;45.09
79138;BME280;68544;45.566;10.238;2023-04-06T03:29:25;100104.88;;;6.26;45.40
79138;BME280;68544;45.566;10.238;2023-04-06T03:31:50;100101.56;;;6.32;45.32
79138;BME280;68544;45.566;10.238;2023-04-06T03:34:15;100101.56;;;6.32;44.89
79138;BME280;68544;45.566;10.238;2023-04-06T03:36:41;100099.88;;;6.31;45.00
79138;BME280;68544;45.566;10.238;2023-04-06T03:39:06;100105.34;;;6.48;44.35
79138;BME280;68544;45.566;10.238;2023-04-06T03:41:31;100109.41;;;6.52;43.88
79138;BME280;68544;45.566;10.238;2023-04-06T03:43:57;100105.88;;;6.51;44.00
79138;BME280;68544;45.566;10.238;2023-04-06T03:46:22;100114.38;;;6.47;44.12
79138;BME280;68544;45.566;10.238;2023-04-06T03:48:48;100110.72;;;6.48;44.59
79138;BME280;68544;45.566;10.238;2023-04-06T03:51:13;100120.97;;;6.26;45.81
79138;BME280;68544;45.566;10.238;2023-04-06T03:53:39;100120.28;;;6.24;46.03
79138;BME280;68544;45.566;10.238;2023-04-06T03:56:04;100122.88;;;6.16;46.69
79138;BME280;68544;45.566;10.238;2023-04-06T03:58:30;100126.47;;;5.99;46.28
79138;BME280;68544;45.566;10.238;2023-04-06T04:00:55;100124.91;;;5.79;46.94
79138;BME280;68544;45.566;10.238;2023-04-06T04:03:21;100122.38;;;5.95;45.74
79138;BME280;68544;45.566;10.238;2023-04-06T04:05:48;100130.06;;;5.90;45.96
79138;BME280;68544;45.566;10.238;2023-04-06T04:08:14;100125.06;;;5.95;44.84
79138;BME280;68544;45.566;10.238;2023-04-06T04:10:39;100128.13;;;6.00;44.22
79138;BME280;68544;45.566;10.238;2023-04-06T04:13:04;100120.78;;;6.02;44.26
79138;BME280;68544;45.566;10.238;2023-04-06T04:15:30;100129.44;;;5.96;44.74
79138;BME280;68544;45.566;10.238;2023-04-06T04:17:55;100123.78;;;5.99;45.17
79138;BME280;68544;45.566;10.238;2023-04-06T04:20:21;100118.09;;;6.02;44.83
79138;BME280;68544;45.566;10.238;2023-04-06T04:22:46;100127.38;;;5.90;45.39
79138;BME280;68544;45.566;10.238;2023-04-06T04:25:11;100134.19;;;5.85;45.60
79138;BME280;68544;45.566;10.238;2023-04-06T04:27:37;100130.41;;;5.78;46.05
79138;BME280;68544;45.566;10.238;2023-04-06T04:30:02;100133.84;;;5.70;46.38
79138;BME280;68544;45.566;10.238;2023-04-06T04:32:28;100130.75;;;5.92;46.15
79138;BME280;68544;45.566;10.238;2023-04-06T04:34:53;100128.25;;;5.81;45.92
79138;BME280;68544;45.566;10.238;2023-04-06T04:37:19;100132.47;;;5.66;46.72
79138;BME280;68544;45.566;10.238;2023-04-06T04:39:45;100133.22;;;5.23;48.24
79138;BME280;68544;45.566;10.238;2023-04-06T04:42:10;100130.00;;;5.37;47.73
79138;BME280;68544;45.566;10.238;2023-04-06T04:44:36;100135.28;;;5.47;47.45
79138;BME280;68544;45.566;10.238;2023-04-06T04:47:01;100139.00;;;5.19;48.07
79138;BME280;68544;45.566;10.238;2023-04-06T04:49:26;100130.47;;;5.06;47.81
79138;BME280;68544;45.566;10.238;2023-04-06T04:51:52;100136.41;;;5.27;47.25
79138;BME280;68544;45.566;10.238;2023-04-06T04:54:18;100132.66;;;5.20;47.40
79138;BME280;68544;45.566;10.238;2023-04-06T04:56:44;100130.53;;;5.41;47.02
79138;BME280;68544;45.566;10.238;2023-04-06T04:59:10;100137.88;;;5.39;47.35
79138;BME280;68544;45.566;10.238;2023-04-06T05:01:35;100135.97;;;5.31;47.81
79138;BME280;68544;45.566;10.238;2023-04-06T05:04:00;100135.13;;;5.31;47.74
79138;BME280;68544;45.566;10.238;2023-04-06T05:06:26;100144.09;;;5.39;47.56
79138;BME280;68544;45.566;10.238;2023-04-06T05:08:51;100134.50;;;5.37;47.89
79138;BME280;68544;45.566;10.238;2023-04-06T05:11:16;100145.91;;;5.39;47.35
79138;BME280;68544;45.566;10.238;2023-04-06T05:13:42;100146.06;;;5.37;47.69
79138;BME280;68544;45.566;10.238;2023-04-06T05:16:07;100151.06;;;5.50;47.43
79138;BME280;68544;45.566;10.238;2023-04-06T05:18:33;100154.59;;;5.50;47.29
79138;BME280;68544;45.566;10.238;2023-04-06T05:20:58;100154.34;;;5.44;47.44
79138;BME280;68544;45.566;10.238;2023-04-06T05:23:24;100154.28;;;5.53;46.96
79138;BME280;68544;45.566;10.238;2023-04-06T05:25:49;100152.22;;;5.65;47.02
79138;BME280;68544;45.566;10.238;2023-04-06T05:28:15;100154.53;;;5.78;46.62
79138;BME280;68544;45.566;10.238;2023-04-06T05:30:44;100149.00;;;5.61;46.88
79138;BME280;68544;45.566;10.238;2023-04-06T05:33:11;100156.13;;;5.71;47.00
79138;BME280;68544;45.566;10.238;2023-04-06T05:35:36;100153.69;;;5.77;47.39
79138;BME280;68544;45.566;10.238;2023-04-06T05:38:02;100163.63;;;5.67;47.75
79138;BME280;68544;45.566;10.238;2023-04-06T05:40:27;100153.72;;;5.95;46.48
79138;BME280;68544;45.566;10.238;2023-04-06T05:42:53;100159.50;;;6.08;45.94
79138;BME280;68544;45.566;10.238;2023-04-06T05:45:19;100151.50;;;5.90;46.28
79138;BME280;68544;45.566;10.238;2023-04-06T05:47:45;100154.69;;;5.94;46.07
79138;BME280;68544;45.566;10.238;2023-04-06T05:50:12;100149.00;;;6.14;45.69
79138;BME280;68544;45.566;10.238;2023-04-06T05:52:37;100151.84;;;6.30;45.07
79138;BME280;68544;45.566;10.238;2023-04-06T05:55:03;100142.09;;;6.81;43.71
79138;BME280;68544;45.566;10.238;2023-04-06T05:57:29;100145.78;;;6.88;43.56
79138;BME280;68544;45.566;10.238;2023-04-06T05:59:54;100148.03;;;7.00;42.94
79138;BME280;68544;45.566;10.238;2023-04-06T06:02:20;100148.44;;;7.22;42.13
79138;BME280;68544;45.566;10.238;2023-04-06T06:04:46;100149.00;;;7.33;42.51
79138;BME280;68544;45.566;10.238;2023-04-06T06:07:11;100141.03;;;7.65;41.21
79138;BME280;68544;45.566;10.238;2023-04-06T06:09:36;100144.09;;;7.86;39.87
79138;BME280;68544;45.566;10.238;2023-04-06T06:12:02;100147.09;;;7.99;39.55
79138;BME280;68544;45.566;10.238;2023-04-06T06:14:27;100144.94;;;8.19;39.06
79138;BME280;68544;45.566;10.238;2023-04-06T06:16:55;100146.81;;;8.27;39.49
79138;BME280;68544;45.566;10.238;2023-04-06T06:19:21;100135.00;;;8.52;38.66
79138;BME280;68544;45.566;10.238;2023-04-06T06:21:46;100146.94;;;8.65;38.43
79138;BME280;68544;45.566;10.238;2023-04-06T06:24:11;100142.34;;;8.82;37.95
79138;BME280;68544;45.566;10.238;2023-04-06T06:26:37;100123.81;;;8.95;37.34
79138;BME280;68544;45.566;10.238;2023-04-06T06:29:04;100135.34;;;9.12;37.01
79138;BME280;68544;45.566;10.238;2023-04-06T06:31:30;100136.06;;;9.36;36.55
79138;BME280;68544;45.566;10.238;2023-04-06T06:33:56;100137.38;;;9.40;36.32
79138;BME280;68544;45.566;10.238;2023-04-06T06:36:21;100132.94;;;9.55;36.01
79138;BME280;68544;45.566;10.238;2023-04-06T06:38:46;100133.59;;;9.80;35.47
79138;BME280;68544;45.566;10.238;2023-04-06T06:41:12;100133.78;;;9.79;35.60
79138;BME280;68544;45.566;10.238;2023-04-06T06:43:37;100134.16;;;9.76;35.25
79138;BME280;68544;45.566;10.238;2023-04-06T06:46:03;100125.50;;;10.11;34.78
79138;BME280;68544;45.566;10.238;2023-04-06T06:48:28;100124.09;;;10.52;34.35
79138;BME280;68544;45.566;10.238;2023-04-06T06:50:54;100120.00;;;10.85;33.09
79138;BME280;68544;45.566;10.238;2023-04-06T06:53:19;100126.72;;;10.75;33.21
79138;BME280;68544;45.566;10.238;2023-04-06T06:55:45;100130.47;;;10.88;33.35
79138;BME280;68544;45.566;10.238;2023-04-06T06:58:10;100129.34;;;10.97;33.27
79138;BME280;68544;45.566;10.238;2023-04-06T07:00:36;100129.34;;;10.97;33.36
79138;BME280;68544;45.566;10.238;2023-04-06T07:03:01;100135.31;;;11.07;32.83
79138;BME280;68544;45.566;10.238;2023-04-06T07:05:27;100139.94;;;11.13;32.76
79138;BME280;68544;45.566;10.238;2023-04-06T07:07:53;100128.44;;;11.41;32.67
79138;BME280;68544;45.566;10.238;2023-04-06T07:10:18;100128.41;;;11.70;31.64
79138;BME280;68544;45.566;10.238;2023-04-06T07:12:43;100132.88;;;11.99;30.73
79138;BME280;68544;45.566;10.238;2023-04-06T07:15:09;100128.03;;;12.36;29.91
79138;BME280;68544;45.566;10.238;2023-04-06T07:17:35;100126.88;;;12.80;29.13
79138;BME280;68544;45.566;10.238;2023-04-06T07:20:00;100132.56;;;12.85;28.48
79138;BME280;68544;45.566;10.238;2023-04-06T07:22:25;100121.56;;;13.27;28.18
79138;BME280;68544;45.566;10.238;2023-04-06T07:24:51;100132.72;;;13.52;26.63
79138;BME280;68544;45.566;10.238;2023-04-06T07:27:16;100133.66;;;13.31;26.59
79138;BME280;68544;45.566;10.238;2023-04-06T07:29:42;100129.69;;;13.27;28.01
79138;BME280;68544;45.566;10.238;2023-04-06T07:32:08;100135.25;;;13.60;27.32
79138;BME280;68544;45.566;10.238;2023-04-06T07:34:33;100129.22;;;13.64;27.10
79138;BME280;68544;45.566;10.238;2023-04-06T07:36:59;100131.81;;;13.98;26.47
79138;BME280;68544;45.566;10.238;2023-04-06T07:39:25;100126.41;;;14.24;25.42
79138;BME280;68544;45.566;10.238;2023-04-06T07:41:52;100130.59;;;14.60;24.73
79138;BME280;68544;45.566;10.238;2023-04-06T07:44:17;100133.69;;;14.89;23.16
79138;BME280;68544;45.566;10.238;2023-04-06T07:46:42;100108.78;;;15.06;22.51
79138;BME280;68544;45.566;10.238;2023-04-06T07:49:08;100123.06;;;14.88;21.28
79138;BME280;68544;45.566;10.238;2023-04-06T07:51:36;100130.50;;;15.19;20.68
79138;BME280;68544;45.566;10.238;2023-04-06T07:54:01;100126.78;;;15.70;19.52
79138;BME280;68544;45.566;10.238;2023-04-06T07:56:27;100134.59;;;15.54;19.72
79138;BME280;68544;45.566;10.238;2023-04-06T07:58:52;100128.44;;;15.65;19.40
79138;BME280;68544;45.566;10.238;2023-04-06T08:01:20;100125.34;;;15.99;18.45
79138;BME280;68544;45.566;10.238;2023-04-06T08:03:46;100125.28;;;16.06;17.81
79138;BME280;68544;45.566;10.238;2023-04-06T08:06:11;100130.56;;;16.63;16.86
79138;BME280;68544;45.566;10.238;2023-04-06T08:08:37;100115.66;;;16.66;16.54
79138;BME280;68544;45.566;10.238;2023-04-06T08:11:02;100114.63;;;16.60;16.41
79138;BME280;68544;45.566;10.238;2023-04-06T08:13:28;100113.50;;;17.28;15.14
79138;BME280;68544;45.566;10.238;2023-04-06T08:15:53;100114.97;;;18.08;14.26
79138;BME280;68544;45.566;10.238;2023-04-06T08:18:18;100108.44;;;18.51;13.67
79138;BME280;68544;45.566;10.238;2023-04-06T08:20:44;100109.88;;;18.65;13.53
79138;BME280;68544;45.566;10.238;2023-04-06T08:23:09;100107.13;;;19.00;12.69
79138;BME280;68544;45.566;10.238;2023-04-06T08:25:36;100117.94;;;19.18;12.51
79138;BME280;68544;45.566;10.238;2023-04-06T08:28:04;100114.16;;;20.60;11.07
79138;BME280;68544;45.566;10.238;2023-04-06T08:30:30;100098.53;;;25.85;6.24
79138;BME280;68544;45.566;10.238;2023-04-06T08:32:56;100099.28;;;29.03;4.42
79138;BME280;68544;45.566;10.238;2023-04-06T08:35:21;100104.91;;;29.85;3.53
79138;BME280;68544;45.566;10.238;2023-04-06T08:37:46;100098.22;;;30.35;3.78
79138;BME280;68544;45.566;10.238;2023-04-06T08:40:13;100092.00;;;30.82;3.84
79138;BME280;68544;45.566;10.238;2023-04-06T08:42:40;100091.91;;;30.87;4.05
79138;BME280;68544;45.566;10.238;2023-04-06T08:45:09;100094.50;;;32.27;3.42
79138;BME280;68544;45.566;10.238;2023-04-06T08:47:36;100092.56;;;32.53;3.21
79138;BME280;68544;45.566;10.238;2023-04-06T08:50:04;100091.63;;;31.76;3.45
79138;BME280;68544;45.566;10.238;2023-04-06T08:52:31;100095.13;;;33.10;3.34
79138;BME280;68544;45.566;10.238;2023-04-06T08:54:57;100081.91;;;31.65;3.98
79138;BME280;68544;45.566;10.238;2023-04-06T08:57:22;100088.59;;;28.08;6.12
79138;BME280;68544;45.566;10.238;2023-04-06T08:59:49;100082.75;;;25.22;7.76
79138;BME280;68544;45.566;10.238;2023-04-06T09:02:17;100088.59;;;24.70;8.56
79138;BME280;68544;45.566;10.238;2023-04-06T09:04:45;100083.94;;;24.25;9.23
79138;BME280;68544;45.566;10.238;2023-04-06T09:07:11;100083.00;;;22.81;9.71
79138;BME280;68544;45.566;10.238;2023-04-06T09:09:37;100083.34;;;22.57;10.76
79138;BME280;68544;45.566;10.238;2023-04-06T09:12:02;100082.78;;;22.50;11.57
79138;BME280;68544;45.566;10.238;2023-04-06T09:14:37;100065.59;;;23.17;10.91
79138;BME280;68544;45.566;10.238;2023-04-06T09:17:03;100085.88;;;23.42;10.46
79138;BME280;68544;45.566;10.238;2023-04-06T09:19:29;100075.31;;;26.92;8.13
79138;BME280;68544;45.566;10.238;2023-04-06T09:22:06;100076.38;;;31.03;5.40
79138;BME280;68544;45.566;10.238;2023-04-06T09:24:49;100076.38;;;33.77;3.56
79138;BME280;68544;45.566;10.238;2023-04-06T09:27:15;100074.59;;;32.80;4.21
79138;BME280;68544;45.566;10.238;2023-04-06T09:29:41;100063.97;;;33.58;3.67
79138;BME280;68544;45.566;10.238;2023-04-06T09:32:07;100067.31;;;34.95;2.99
79138;BME280;68544;45.566;10.238;2023-04-06T09:34:36;100057.66;;;35.29;3.11
79138;BME280;68544;45.566;10.238;2023-04-06T09:37:12;100067.25;;;35.40;2.46
79138;BME280;68544;45.566;10.238;2023-04-06T09:39:38;100063.28;;;35.29;2.90
79138;BME280;68544;45.566;10.238;2023-04-06T09:42:03;100057.97;;;36.52;2.18
79138;BME280;68544;45.566;10.238;2023-04-06T09:44:30;100057.69;;;36.85;1.83
79138;BME280;68544;45.566;10.238;2023-04-06T09:46:55;100054.50;;;37.45;2.34
79138;BME280;68544;45.566;10.238;2023-04-06T09:49:21;100049.44;;;38.58;1.78
79138;BME280;68544;45.566;10.238;2023-04-06T09:51:56;100051.63;;;38.88;1.33
79138;BME280;68544;45.566;10.238;2023-04-06T09:54:28;100045.47;;;37.24;2.00
79138;BME280;68544;45.566;10.238;2023-04-06T09:59:58;100048.94;;;37.02;2.02
79138;BME280;68544;45.566;10.238;2023-04-06T10:02:44;100036.72;;;36.98;2.38
79138;BME280;68544;45.566;10.238;2023-04-06T10:07:57;100033.69;;;36.75;2.17
79138;BME280;68544;45.566;10.238;2023-04-06T10:10:25;100026.25;;;36.00;2.20
79138;BME280;68544;45.566;10.238;2023-04-06T10:12:50;100021.50;;;37.96;1.92
79138;BME280;68544;45.566;10.238;2023-04-06T10:15:16;100023.38;;;37.10;2.26
79138;BME280;68544;45.566;10.238;2023-04-06T10:17:43;100022.81;;;37.83;1.87
79138;BME280;68544;45.566;10.238;2023-04-06T10:20:17;100023.94;;;37.00;1.93
79138;BME280;68544;45.566;10.238;2023-04-06T10:23:05;100025.03;;;37.11;2.46
79138;BME280;68544;45.566;10.238;2023-04-06T10:25:32;100021.03;;;37.78;1.84
79138;BME280;68544;45.566;10.238;2023-04-06T10:28:08;100020.88;;;37.37;1.96
79138;BME280;68544;45.566;10.238;2023-04-06T10:30:35;100003.56;;;37.54;1.88
79138;BME280;68544;45.566;10.238;2023-04-06T10:33:17;100014.75;;;36.44;3.05
79138;BME280;68544;45.566;10.238;2023-04-06T10:35:43;100006.69;;;38.60;1.69
79138;BME280;68544;45.566;10.238;2023-04-06T10:38:08;100007.06;;;38.01;2.02
79138;BME280;68544;45.566;10.238;2023-04-06T10:40:38;100017.34;;;38.09;1.81
79138;BME280;68544;45.566;10.238;2023-04-06T10:45:34;100010.69;;;38.36;1.83
79138;BME280;68544;45.566;10.238;2023-04-06T10:48:00;99996.41;;;38.10;1.88
79138;BME280;68544;45.566;10.238;2023-04-06T10:50:27;99998.69;;;37.19;2.58
79138;BME280;68544;45.566;10.238;2023-04-06T10:53:01;99996.84;;;35.97;2.77
79138;BME280;68544;45.566;10.238;2023-04-06T10:55:28;99989.59;;;37.76;2.36
79138;BME280;68544;45.566;10.238;2023-04-06T10:57:53;99981.91;;;38.12;2.14
79138;BME280;68544;45.566;10.238;2023-04-06T11:00:19;99987.47;;;38.65;1.97
79138;BME280;68544;45.566;10.238;2023-04-06T11:02:45;99979.06;;;37.73;2.43
79138;BME280;68544;45.566;10.238;2023-04-06T11:05:11;99980.59;;;38.44;2.19
79138;BME280;68544;45.566;10.238;2023-04-06T11:07:39;99979.88;;;37.08;2.50
79138;BME280;68544;45.566;10.238;2023-04-06T11:10:06;99972.41;;;37.47;2.26
79138;BME280;68544;45.566;10.238;2023-04-06T11:12:32;99977.72;;;36.58;2.75
79138;BME280;68544;45.566;10.238;2023-04-06T11:14:59;99974.91;;;36.30;2.69
79138;BME280;68544;45.566;10.238;2023-04-06T11:17:30;99963.06;;;36.80;2.55
79138;BME280;68544;45.566;10.238;2023-04-06T11:19:56;99960.72;;;37.64;2.12
79138;BME280;68544;45.566;10.238;2023-04-06T11:22:22;99961.94;;;35.98;3.14
79138;BME280;68544;45.566;10.238;2023-04-06T11:24:47;99956.28;;;34.86;3.46
79138;BME280;68544;45.566;10.238;2023-04-06T11:27:14;99955.25;;;36.03;3.10
79138;BME280;68544;45.566;10.238;2023-04-06T11:29:41;99945.41;;;35.57;3.30
79138;BME280;68544;45.566;10.238;2023-04-06T11:32:07;99951.06;;;36.83;3.16
79138;BME280;68544;45.566;10.238;2023-04-06T11:34:36;99948.66;;;35.71;3.52
79138;BME280;68544;45.566;10.238;2023-04-06T11:37:08;99939.28;;;36.34;3.15
79138;BME280;68544;45.566;10.238;2023-04-06T11:39:50;99934.97;;;36.53;3.40
79138;BME280;68544;45.566;10.238;2023-04-06T11:42:34;99930.28;;;37.03;2.97
79138;BME280;68544;45.566;10.238;2023-04-06T11:45:00;99935.28;;;36.20;3.01
79138;BME280;68544;45.566;10.238;2023-04-06T11:47:30;99931.53;;;35.76;3.37
79138;BME280;68544;45.566;10.238;2023-04-06T11:50:05;99932.56;;;35.84;3.40
79138;BME280;68544;45.566;10.238;2023-04-06T11:52:31;99924.53;;;35.06;3.47
79138;BME280;68544;45.566;10.238;2023-04-06T11:54:56;99923.78;;;35.21;3.79
79138;BME280;68544;45.566;10.238;2023-04-06T11:57:23;99928.44;;;34.57;3.74
79138;BME280;68544;45.566;10.238;2023-04-06T11:59:50;99921.25;;;32.74;5.09
79138;BME280;68544;45.566;10.238;2023-04-06T12:02:16;99921.72;;;28.83;7.63
79138;BME280;68544;45.566;10.238;2023-04-06T12:04:42;99924.44;;;26.51;9.12
79138;BME280;68544;45.566;10.238;2023-04-06T12:07:08;99923.66;;;25.83;9.54
79138;BME280;68544;45.566;10.238;2023-04-06T12:09:33;99917.47;;;24.29;10.86
79138;BME280;68544;45.566;10.238;2023-04-06T12:11:59;99919.97;;;23.66;11.43
79138;BME280;68544;45.566;10.238;2023-04-06T12:14:25;99905.56;;;23.23;11.77
79138;BME280;68544;45.566;10.238;2023-04-06T12:16:51;99903.25;;;22.95;11.79
79138;BME280;68544;45.566;10.238;2023-04-06T12:19:16;99905.75;;;22.40;12.42
79138;BME280;68544;45.566;10.238;2023-04-06T12:21:41;99892.22;;;21.91;12.67
79138;BME280;68544;45.566;10.238;2023-04-06T12:24:07;99893.59;;;21.62;13.00
79138;BME280;68544;45.566;10.238;2023-04-06T12:26:33;99886.84;;;21.43;13.41
79138;BME280;68544;45.566;10.238;2023-04-06T12:28:59;99888.06;;;21.31;13.54
79138;BME280;68544;45.566;10.238;2023-04-06T12:31:35;99886.94;;;20.57;14.40
79138;BME280;68544;45.566;10.238;2023-04-06T12:34:02;99879.22;;;20.54;14.84
79138;BME280;68544;45.566;10.238;2023-04-06T12:36:28;99878.38;;;20.53;14.59
79138;BME280;68544;45.566;10.238;2023-04-06T12:38:53;99884.28;;;20.23;14.87
79138;BME280;68544;45.566;10.238;2023-04-06T12:41:19;99866.72;;;19.86;14.99
79138;BME280;68544;45.566;10.238;2023-04-06T12:43:45;99872.03;;;19.93;15.04
79138;BME280;68544;45.566;10.238;2023-04-06T12:46:11;99868.53;;;19.97;15.15
79138;BME280;68544;45.566;10.238;2023-04-06T12:48:37;99863.72;;;19.88;15.37
79138;BME280;68544;45.566;10.238;2023-04-06T12:51:03;99851.19;;;19.75;15.46
79138;BME280;68544;45.566;10.238;2023-04-06T12:53:28;99862.19;;;20.13;15.36